createdAt,value
2022-12-31T00:00:47.907Z,12.83
2022-12-31T00:03:15.201Z,12.83
2022-12-31T00:05:42.547Z,12.77
2022-12-31T00:08:10.359Z,11.80
2022-12-31T00:10:41.531Z,11.17
2022-12-31T00:13:10.061Z,10.27
2022-12-31T00:15:37.558Z,11.17
2022-12-31T00:18:04.785Z,10.90
2022-12-31T00:20:32.071Z,11.80
2022-12-31T00:22:59.239Z,9.77
2022-12-31T00:25:26.625Z,11.30
2022-12-31T00:27:54.583Z,12.60
2022-12-31T00:30:21.736Z,12.57
2022-12-31T00:32:48.894Z,10.53
2022-12-31T00:35:16.041Z,10.80
2022-12-31T00:37:43.207Z,9.77
2022-12-31T00:40:10.783Z,11.53
2022-12-31T00:42:37.950Z,13.80
2022-12-31T00:45:05.218Z,11.70
2022-12-31T00:47:32.388Z,10.10
2022-12-31T00:49:59.526Z,12.07
2022-12-31T00:52:27.808Z,11.70
2022-12-31T00:54:55.239Z,10.03
2022-12-31T00:57:22.528Z,12.80
2022-12-31T00:59:49.712Z,11.53
2022-12-31T01:02:17.091Z,10.63
2022-12-31T01:04:44.691Z,9.20
2022-12-31T01:07:11.831Z,9.10
2022-12-31T01:09:39.039Z,12.50
2022-12-31T01:12:06.359Z,11.03
2022-12-31T01:14:34.071Z,8.30
2022-12-31T01:17:01.604Z,8.23
2022-12-31T01:19:29.595Z,12.27
2022-12-31T01:21:57.211Z,8.77
2022-12-31T01:24:24.471Z,10.23
2022-12-31T01:26:51.816Z,12.43
2022-12-31T01:29:19.117Z,10.93
2022-12-31T01:31:46.464Z,10.03
2022-12-31T01:34:13.659Z,8.63
2022-12-31T01:36:45.497Z,8.17
2022-12-31T01:39:13.019Z,9.03
2022-12-31T01:41:42.650Z,8.67
2022-12-31T01:44:12.894Z,9.37
2022-12-31T01:46:42.357Z,9.53
2022-12-31T01:49:12.114Z,11.73
2022-12-31T01:51:40.820Z,9.00
2022-12-31T01:54:10.172Z,10.37
2022-12-31T01:56:38.224Z,9.73
2022-12-31T01:59:07.426Z,9.83
2022-12-31T02:01:36.245Z,9.80
2022-12-31T02:04:06.401Z,9.53
2022-12-31T02:06:37.336Z,11.37
2022-12-31T02:09:04.596Z,8.27
2022-12-31T02:11:35.423Z,9.60
2022-12-31T02:14:10.419Z,11.23
2022-12-31T02:16:53.043Z,9.87
2022-12-31T02:19:38.632Z,9.00
2022-12-31T02:22:14.830Z,8.33
2022-12-31T02:24:57.416Z,11.33
2022-12-31T02:27:33.810Z,9.20
2022-12-31T02:30:06.713Z,10.00
2022-12-31T02:32:50.583Z,9.60
2022-12-31T02:35:30.506Z,9.33
2022-12-31T02:38:06.830Z,11.33
2022-12-31T02:40:35.577Z,8.33
2022-12-31T02:43:03.334Z,10.90
2022-12-31T02:45:33.152Z,7.87
2022-12-31T02:48:08.804Z,9.50
2022-12-31T02:50:36.044Z,9.30
2022-12-31T02:53:15.318Z,9.60
2022-12-31T02:55:56.395Z,11.03
2022-12-31T02:58:48.456Z,8.10
2022-12-31T03:01:51.863Z,8.60
2022-12-31T03:04:32.460Z,7.33
2022-12-31T03:07:18.632Z,10.90
2022-12-31T03:09:45.873Z,8.83
2022-12-31T03:12:32.627Z,9.53
2022-12-31T03:15:00.133Z,11.20
2022-12-31T03:17:27.931Z,8.40
2022-12-31T03:20:14.156Z,9.03
2022-12-31T03:22:44.065Z,9.17
2022-12-31T03:25:29.849Z,11.20
2022-12-31T03:27:57.321Z,8.20
2022-12-31T03:30:25.155Z,6.90
2022-12-31T03:32:53.217Z,8.43
2022-12-31T03:35:21.073Z,8.93
2022-12-31T03:37:48.677Z,9.57
2022-12-31T03:40:16.430Z,8.47
2022-12-31T03:42:43.589Z,6.67
2022-12-31T03:45:11.936Z,7.80
2022-12-31T03:47:39.086Z,11.73
2022-12-31T03:50:07.421Z,7.43
2022-12-31T03:52:34.648Z,6.90
2022-12-31T03:55:02.330Z,6.13
2022-12-31T03:57:29.990Z,6.83
2022-12-31T03:59:57.180Z,7.33
2022-12-31T04:02:28.577Z,7.33
2022-12-31T04:04:56.648Z,7.57
2022-12-31T04:07:23.945Z,6.30
2022-12-31T04:09:51.175Z,6.30
2022-12-31T04:12:18.356Z,6.00
2022-12-31T04:14:45.555Z,7.00
2022-12-31T04:17:12.725Z,7.17
2022-12-31T04:19:41.161Z,8.13
2022-12-31T04:22:08.305Z,6.20
2022-12-31T04:24:35.643Z,9.10
2022-12-31T04:27:07.599Z,6.97
2022-12-31T04:29:35.490Z,7.50
2022-12-31T04:32:03.289Z,7.17
2022-12-31T04:34:30.494Z,7.77
2022-12-31T04:36:57.988Z,8.67
2022-12-31T04:39:25.416Z,8.17
2022-12-31T04:41:53.001Z,8.10
2022-12-31T04:44:20.322Z,6.83
2022-12-31T04:46:47.770Z,7.13
2022-12-31T04:49:14.994Z,7.77
2022-12-31T04:51:42.187Z,8.00
2022-12-31T04:54:09.321Z,6.47
2022-12-31T04:56:36.752Z,8.03
2022-12-31T04:59:04.972Z,7.20
2022-12-31T05:01:33.136Z,8.10
2022-12-31T05:04:00.471Z,7.23
2022-12-31T05:06:27.729Z,7.97
2022-12-31T05:08:54.946Z,7.03
2022-12-31T05:11:22.133Z,7.00
2022-12-31T05:13:49.311Z,11.03
2022-12-31T05:16:16.838Z,7.13
2022-12-31T05:18:44.045Z,7.27
2022-12-31T05:21:13.728Z,7.30
2022-12-31T05:23:40.896Z,7.53
2022-12-31T05:26:08.056Z,6.17
2022-12-31T05:28:35.187Z,6.63
2022-12-31T05:31:02.403Z,6.73
2022-12-31T05:33:29.610Z,6.67
2022-12-31T05:35:58.658Z,6.50
2022-12-31T05:38:26.487Z,7.30
2022-12-31T05:41:00.393Z,7.20
2022-12-31T05:43:27.833Z,7.40
2022-12-31T05:45:55.212Z,8.57
2022-12-31T05:48:22.494Z,9.13
2022-12-31T05:50:50.280Z,7.73
2022-12-31T05:53:17.519Z,7.77
2022-12-31T05:55:46.161Z,7.03
2022-12-31T05:58:13.603Z,7.40
2022-12-31T06:00:40.841Z,6.40
2022-12-31T06:03:08.155Z,6.80
2022-12-31T06:05:35.397Z,7.20
2022-12-31T06:08:02.659Z,7.57
2022-12-31T06:10:29.788Z,7.63
2022-12-31T06:12:56.909Z,14.33
2022-12-31T06:15:24.128Z,8.60
2022-12-31T06:17:51.452Z,6.90
2022-12-31T06:20:18.672Z,8.53
2022-12-31T06:22:45.821Z,9.10
2022-12-31T06:25:13.083Z,11.33
2022-12-31T06:27:40.224Z,7.50
2022-12-31T06:30:07.889Z,8.67
2022-12-31T06:32:35.144Z,8.67
2022-12-31T06:35:02.509Z,9.00
2022-12-31T06:37:29.730Z,7.63
2022-12-31T06:39:56.887Z,8.73
2022-12-31T06:42:24.063Z,8.03
2022-12-31T06:44:51.212Z,7.37
2022-12-31T06:47:18.404Z,9.07
2022-12-31T06:49:45.516Z,7.90
2022-12-31T06:52:12.682Z,10.93
2022-12-31T06:54:39.952Z,11.63
2022-12-31T06:57:07.397Z,9.63
2022-12-31T06:59:34.784Z,8.17
2022-12-31T07:02:02.145Z,10.33
2022-12-31T07:04:35.449Z,8.80
2022-12-31T07:07:13.156Z,7.43
2022-12-31T07:10:06.694Z,8.50
2022-12-31T07:12:36.819Z,7.10
2022-12-31T07:15:12.299Z,7.40
2022-12-31T07:17:48.585Z,7.97
2022-12-31T07:20:19.368Z,10.37
2022-12-31T07:22:47.323Z,8.13
2022-12-31T07:25:15.518Z,8.00
2022-12-31T07:27:54.755Z,7.73
2022-12-31T07:30:23.260Z,7.23
2022-12-31T07:33:05.777Z,8.50
2022-12-31T07:35:48.263Z,7.43
2022-12-31T07:38:25.639Z,6.83
2022-12-31T07:40:57.683Z,6.50
2022-12-31T07:43:33.390Z,7.07
2022-12-31T07:46:15.930Z,7.17
2022-12-31T07:48:43.307Z,6.87
2022-12-31T07:51:11.389Z,6.63
2022-12-31T07:53:38.904Z,5.27
2022-12-31T07:56:07.564Z,6.33
2022-12-31T07:58:48.971Z,7.63
2022-12-31T08:01:17.663Z,7.13
2022-12-31T08:04:00.183Z,6.30
2022-12-31T08:06:45.949Z,6.90
2022-12-31T08:09:30.712Z,7.90
2022-12-31T08:11:59.796Z,6.90
2022-12-31T08:14:27.547Z,7.50
2022-12-31T08:16:54.862Z,5.37
2022-12-31T08:19:25.750Z,5.63
2022-12-31T08:22:19.469Z,5.77
2022-12-31T08:24:52.962Z,8.27
2022-12-31T08:27:35.468Z,6.37
2022-12-31T08:30:05.920Z,10.23
2022-12-31T08:32:43.844Z,5.63
2022-12-31T08:35:19.647Z,7.37
2022-12-31T08:37:49.858Z,6.50
2022-12-31T08:40:16.967Z,6.30
2022-12-31T08:42:44.171Z,6.33
2022-12-31T08:45:11.536Z,7.07
2022-12-31T08:47:38.870Z,6.10
2022-12-31T08:50:06.867Z,6.20
2022-12-31T08:52:34.099Z,8.53
2022-12-31T08:55:02.711Z,8.33
2022-12-31T08:57:33.662Z,7.33
2022-12-31T09:00:03.656Z,11.20
2022-12-31T09:02:49.684Z,6.30
2022-12-31T09:05:20.286Z,7.23
2022-12-31T09:07:51.927Z,8.43
2022-12-31T09:10:24.661Z,6.67
2022-12-31T09:13:02.297Z,4.67
2022-12-31T09:15:41.607Z,7.40
2022-12-31T09:18:09.388Z,6.47
2022-12-31T09:20:44.854Z,11.63
2022-12-31T09:23:12.878Z,5.87
2022-12-31T09:25:45.756Z,8.70
2022-12-31T09:28:22.391Z,6.33
2022-12-31T09:30:54.753Z,5.47
2022-12-31T09:33:21.900Z,6.67
2022-12-31T09:35:53.279Z,8.90
2022-12-31T09:38:23.117Z,10.87
2022-12-31T09:41:06.582Z,9.87
2022-12-31T09:43:36.532Z,8.80
2022-12-31T09:46:21.974Z,6.80
2022-12-31T09:49:21.696Z,8.70
2022-12-31T09:51:51.764Z,6.40
2022-12-31T09:54:25.835Z,6.70
2022-12-31T09:56:59.364Z,4.90
2022-12-31T09:59:29.680Z,6.47
2022-12-31T10:02:15.207Z,6.00
2022-12-31T10:04:51.709Z,6.10
2022-12-31T10:07:29.935Z,8.77
2022-12-31T10:09:57.139Z,7.88
2022-12-31T10:12:32.305Z,8.27
2022-12-31T10:14:59.485Z,7.53
2022-12-31T10:17:45.244Z,9.60
2022-12-31T10:20:12.452Z,7.25
2022-12-31T10:22:58.129Z,7.30
2022-12-31T10:25:39.217Z,10.67
2022-12-31T10:28:07.267Z,12.50
2022-12-31T10:30:36.344Z,10.80
2022-12-31T10:33:12.390Z,8.77
2022-12-31T10:35:48.395Z,9.48
2022-12-31T10:38:34.708Z,10.82
2022-12-31T10:41:05.051Z,7.70
2022-12-31T10:43:32.214Z,10.70
2022-12-31T10:46:19.096Z,8.48
2022-12-31T10:48:59.116Z,8.57
2022-12-31T10:51:49.369Z,8.50
2022-12-31T10:54:22.770Z,6.05
2022-12-31T10:57:09.237Z,6.53
2022-12-31T10:59:45.564Z,7.13
2022-12-31T11:02:18.673Z,6.20
2022-12-31T11:04:52.130Z,6.55
2022-12-31T11:07:19.311Z,5.32
2022-12-31T11:09:46.633Z,6.22
2022-12-31T11:12:25.565Z,6.28
2022-12-31T11:14:57.981Z,8.27
2022-12-31T11:17:31.309Z,4.78
2022-12-31T11:20:03.567Z,6.32
2022-12-31T11:22:36.791Z,5.80
2022-12-31T11:25:13.166Z,4.30
2022-12-31T11:28:03.659Z,5.30
2022-12-31T11:30:34.016Z,5.53
2022-12-31T11:33:13.631Z,4.18
2022-12-31T11:35:43.914Z,3.58
2022-12-31T11:38:19.244Z,4.72
2022-12-31T11:40:48.124Z,8.63
2022-12-31T11:43:27.592Z,4.43
2022-12-31T11:46:13.342Z,4.72
2022-12-31T11:48:43.505Z,4.63
2022-12-31T11:51:10.692Z,3.35
2022-12-31T11:53:37.968Z,3.95
2022-12-31T11:56:14.014Z,5.43
2022-12-31T11:58:46.988Z,4.68
2022-12-31T12:01:25.522Z,5.53
2022-12-31T12:03:52.838Z,4.30
2022-12-31T12:06:24.179Z,3.47
2022-12-31T12:08:57.674Z,5.82
2022-12-31T12:11:26.492Z,4.65
2022-12-31T12:13:53.719Z,6.43
2022-12-31T12:16:21.983Z,6.35
2022-12-31T12:18:50.852Z,3.20
2022-12-31T12:21:19.535Z,3.58
2022-12-31T12:24:04.525Z,7.20
2022-12-31T12:26:34.960Z,4.68
2022-12-31T12:29:12.572Z,4.95
2022-12-31T12:31:40.100Z,4.30
2022-12-31T12:34:24.235Z,3.47
2022-12-31T12:36:51.466Z,4.75
2022-12-31T12:39:35.557Z,6.10
2022-12-31T12:42:08.380Z,2.83
2022-12-31T12:44:38.826Z,4.07
2022-12-31T12:47:08.776Z,3.63
2022-12-31T12:49:40.666Z,3.65
2022-12-31T12:52:16.761Z,3.38
2022-12-31T12:55:08.634Z,6.40
2022-12-31T12:57:54.339Z,4.95
2022-12-31T13:00:38.039Z,3.25
2022-12-31T13:03:17.647Z,3.28
2022-12-31T13:05:54.298Z,3.85
2022-12-31T13:08:36.164Z,5.13
2022-12-31T13:11:03.321Z,4.43
2022-12-31T13:13:45.979Z,3.92
2022-12-31T13:16:18.079Z,4.80
2022-12-31T13:18:45.313Z,3.42
2022-12-31T13:21:31.935Z,4.88
2022-12-31T13:24:02.151Z,3.35
2022-12-31T13:26:34.891Z,4.25
2022-12-31T13:29:02.993Z,5.68
2022-12-31T13:31:33.185Z,6.15
2022-12-31T13:34:11.949Z,4.05
2022-12-31T13:36:41.119Z,3.97
2022-12-31T13:39:17.211Z,7.55
2022-12-31T13:41:51.077Z,13.32
2022-12-31T13:44:37.131Z,5.63
2022-12-31T13:47:30.117Z,4.40
2022-12-31T13:50:00.299Z,5.13
2022-12-31T13:52:30.779Z,4.50
2022-12-31T13:55:01.431Z,6.15
2022-12-31T13:57:41.459Z,5.43
2022-12-31T14:00:32.238Z,5.10
2022-12-31T14:03:02.423Z,5.00
2022-12-31T14:05:33.293Z,5.10
2022-12-31T14:08:01.853Z,4.95
2022-12-31T14:10:35.540Z,9.02
2022-12-31T14:13:10.468Z,4.40
2022-12-31T14:16:03.767Z,4.78
2022-12-31T14:18:38.494Z,8.93
2022-12-31T14:21:05.921Z,3.78
2022-12-31T14:23:57.348Z,4.32
2022-12-31T14:26:27.584Z,4.13
2022-12-31T14:29:14.920Z,4.90
2022-12-31T14:31:54.338Z,4.15
2022-12-31T14:34:24.927Z,4.47
2022-12-31T14:37:04.407Z,3.72
2022-12-31T14:39:50.256Z,6.05
2022-12-31T14:42:20.427Z,5.82
2022-12-31T14:45:02.872Z,4.75
2022-12-31T14:48:08.661Z,6.07
2022-12-31T14:50:36.313Z,5.68
2022-12-31T14:53:05.935Z,5.75
2022-12-31T14:55:35.721Z,5.18
2022-12-31T15:00:53.297Z,5.55
2022-12-31T15:03:20.728Z,5.50
2022-12-31T15:06:06.937Z,4.63
2022-12-31T15:08:34.156Z,5.68
2022-12-31T15:11:04.483Z,5.28
2022-12-31T15:13:51.946Z,6.57
2022-12-31T15:16:37.646Z,6.65
2022-12-31T15:19:20.022Z,8.32
2022-12-31T15:21:59.409Z,6.40
2022-12-31T15:24:27.734Z,11.63
2022-12-31T15:26:56.623Z,5.95
2022-12-31T15:29:26.556Z,6.13
2022-12-31T15:31:54.388Z,8.18
2022-12-31T15:34:39.736Z,7.40
2022-12-31T15:37:08.119Z,10.07
2022-12-31T15:39:35.267Z,9.05
2022-12-31T15:44:51.314Z,7.28
2022-12-31T15:47:25.162Z,11.20
2022-12-31T15:49:54.253Z,10.07
2022-12-31T15:52:23.393Z,7.75
2022-12-31T15:54:52.111Z,8.05
2022-12-31T15:57:21.704Z,7.60
2022-12-31T15:59:48.919Z,8.95
2022-12-31T16:02:21.564Z,7.15
2022-12-31T16:04:49.310Z,8.43
2022-12-31T16:07:17.762Z,7.32
2022-12-31T16:09:48.349Z,8.57
2022-12-31T16:12:21.609Z,7.38
2022-12-31T16:14:53.954Z,6.05
2022-12-31T16:17:27.367Z,8.13
2022-12-31T16:19:54.822Z,7.85
2022-12-31T16:22:29.610Z,13.95
2022-12-31T16:27:44.807Z,6.68
2022-12-31T16:30:28.903Z,7.15
2022-12-31T16:33:03.358Z,10.05
2022-12-31T16:35:32.276Z,6.97
2022-12-31T16:38:08.824Z,8.00
2022-12-31T16:40:36.045Z,6.15
2022-12-31T16:43:03.325Z,6.88
2022-12-31T16:45:33.493Z,8.27
2022-12-31T16:48:12.996Z,8.73
2022-12-31T16:50:48.099Z,7.10
2022-12-31T16:53:17.594Z,8.32
2022-12-31T16:55:51.065Z,8.43
2022-12-31T16:58:21.916Z,6.03
2022-12-31T17:00:50.142Z,6.90
2022-12-31T17:03:17.423Z,5.65
2022-12-31T17:06:03.452Z,6.25
2022-12-31T17:08:39.883Z,6.38
2022-12-31T17:11:23.219Z,5.75
2022-12-31T17:13:55.704Z,6.85
2022-12-31T17:16:23.129Z,6.07
2022-12-31T17:18:50.527Z,8.23
2022-12-31T17:21:17.896Z,9.75
2022-12-31T17:23:50.663Z,6.60
2022-12-31T17:26:23.666Z,8.18
2022-12-31T17:28:51.624Z,9.68
2022-12-31T17:31:37.633Z,7.85
2022-12-31T17:34:18.532Z,7.80
2022-12-31T17:36:59.752Z,11.48
2022-12-31T17:39:27.590Z,8.52
2022-12-31T17:41:57.152Z,7.95
2022-12-31T17:44:26.435Z,8.30
2022-12-31T17:46:53.808Z,9.35
2022-12-31T17:49:27.275Z,9.38
2022-12-31T17:51:54.545Z,7.50
2022-12-31T17:54:21.730Z,9.77
2022-12-31T17:56:49.131Z,10.23
2022-12-31T17:59:21.491Z,9.35
2022-12-31T18:01:49.099Z,9.77
2022-12-31T18:04:17.829Z,9.05
2022-12-31T18:06:45.044Z,7.47
2022-12-31T18:09:12.454Z,8.77
2022-12-31T18:11:40.949Z,7.03
2022-12-31T18:14:08.462Z,9.90
2022-12-31T18:16:35.765Z,11.68
2022-12-31T18:19:03.212Z,10.93
2022-12-31T18:21:32.583Z,16.77
2022-12-31T18:26:26.896Z,14.68
2022-12-31T18:28:54.115Z,10.35
2022-12-31T18:31:39.576Z,9.23
2022-12-31T18:34:06.755Z,7.38
2022-12-31T18:36:35.863Z,9.80
2022-12-31T18:39:04.641Z,9.20
2022-12-31T18:41:45.863Z,9.13
2022-12-31T18:44:14.223Z,10.05
2022-12-31T18:46:41.523Z,5.93
2022-12-31T18:49:09.156Z,8.52
2022-12-31T18:51:36.419Z,6.93
2022-12-31T18:54:04.681Z,5.75
2022-12-31T18:56:32.115Z,9.20
2022-12-31T18:58:59.895Z,7.45
2022-12-31T19:01:28.824Z,8.60
2022-12-31T19:04:00.367Z,6.45
2022-12-31T19:06:27.961Z,5.82
2022-12-31T19:08:55.496Z,8.05
2022-12-31T19:11:22.909Z,7.45
2022-12-31T19:13:50.938Z,8.40
2022-12-31T19:16:18.344Z,7.70
2022-12-31T19:18:47.527Z,7.05
2022-12-31T19:21:19.493Z,8.02
2022-12-31T19:23:47.149Z,7.47
2022-12-31T19:26:18.865Z,7.65
2022-12-31T19:28:46.767Z,7.05
2022-12-31T19:31:14.266Z,7.28
2022-12-31T19:33:41.582Z,6.88
2022-12-31T19:36:26.743Z,7.53
2022-12-31T19:38:53.935Z,8.20
2022-12-31T19:41:21.204Z,6.22
2022-12-31T19:43:48.665Z,8.27
2022-12-31T19:46:16.840Z,8.05
2022-12-31T19:48:44.607Z,8.50
2022-12-31T19:51:13.168Z,7.45
2022-12-31T19:53:40.801Z,7.05
2022-12-31T19:56:11.777Z,6.43
2022-12-31T19:58:38.924Z,5.63
2022-12-31T20:01:06.351Z,7.63
2022-12-31T20:03:33.776Z,10.50
2022-12-31T20:06:02.368Z,10.60
2022-12-31T20:08:29.637Z,9.52
2022-12-31T20:10:58.891Z,7.97
2022-12-31T20:13:27.099Z,9.00
2022-12-31T20:15:55.074Z,7.35
2022-12-31T20:18:23.279Z,6.38
2022-12-31T20:20:55.776Z,5.78
2022-12-31T20:23:23.385Z,5.82
2022-12-31T20:26:00.108Z,6.35
2022-12-31T20:28:27.963Z,5.75
2022-12-31T20:30:55.916Z,6.30
2022-12-31T20:33:23.312Z,7.10
2022-12-31T20:35:50.721Z,6.82
2022-12-31T20:38:17.895Z,6.20
2022-12-31T20:40:47.082Z,7.10
2022-12-31T20:43:14.546Z,6.40
2022-12-31T20:45:42.177Z,7.57
2022-12-31T20:48:09.666Z,5.43
2022-12-31T20:50:36.848Z,5.05
2022-12-31T20:53:04.102Z,8.23
2022-12-31T20:55:32.312Z,7.80
2022-12-31T20:58:00.543Z,7.40
2022-12-31T21:00:27.828Z,10.65
2022-12-31T21:03:06.507Z,6.95
2022-12-31T21:05:38.173Z,8.52
2022-12-31T21:08:05.538Z,7.28
2022-12-31T21:10:33.610Z,7.70
2022-12-31T21:13:00.815Z,9.20
2022-12-31T21:15:28.156Z,8.30
2022-12-31T21:17:55.608Z,6.80
2022-12-31T21:20:22.820Z,6.53
2022-12-31T21:22:49.995Z,7.28
2022-12-31T21:25:17.274Z,7.80
2022-12-31T21:27:44.451Z,11.77
2022-12-31T21:30:20.324Z,6.28
2022-12-31T21:32:47.873Z,7.40
2022-12-31T21:35:42.236Z,6.40
2022-12-31T21:38:02.805Z,6.07
2022-12-31T21:40:30.742Z,5.80
2022-12-31T21:42:58.051Z,5.82
2022-12-31T21:45:25.373Z,9.57
2022-12-31T21:48:19.020Z,5.40
2022-12-31T21:50:50.356Z,7.35
2022-12-31T21:53:23.736Z,6.50
2022-12-31T21:56:08.717Z,7.03
2022-12-31T21:58:36.815Z,6.70
2022-12-31T22:01:22.960Z,5.70
2022-12-31T22:03:50.580Z,5.75
2022-12-31T22:06:22.389Z,5.22
2022-12-31T22:08:50.759Z,5.38
2022-12-31T22:11:18.575Z,4.93
2022-12-31T22:13:46.104Z,7.15
2022-12-31T22:16:14.169Z,5.97
2022-12-31T22:18:42.983Z,5.45
2022-12-31T22:21:18.908Z,5.05
2022-12-31T22:23:48.353Z,6.03
2022-12-31T22:26:16.491Z,5.38
2022-12-31T22:28:44.216Z,5.88
2022-12-31T22:31:14.497Z,4.95
2022-12-31T22:33:41.979Z,5.72
2022-12-31T22:36:11.921Z,5.50
2022-12-31T22:38:39.189Z,5.70
2022-12-31T22:41:07.851Z,6.55
2022-12-31T22:43:36.716Z,6.35
2022-12-31T22:46:08.813Z,4.55
2022-12-31T22:48:36.410Z,6.45
2022-12-31T22:51:03.976Z,6.18
2022-12-31T22:53:31.209Z,6.43
2022-12-31T22:55:58.341Z,4.53
2022-12-31T22:58:26.007Z,5.78
2022-12-31T23:00:53.508Z,12.07
2022-12-31T23:03:21.193Z,12.50
2022-12-31T23:05:52.475Z,21.30
2022-12-31T23:08:23.246Z,12.85
2022-12-31T23:11:03.773Z,6.85
2022-12-31T23:13:51.517Z,5.45
2022-12-31T23:16:38.296Z,9.15
2022-12-31T23:19:24.951Z,7.68
2022-12-31T23:22:10.983Z,6.53
2022-12-31T23:24:38.426Z,10.20
2022-12-31T23:27:05.827Z,8.50
2022-12-31T23:29:33.100Z,8.82
2022-12-31T23:32:00.594Z,9.15
2022-12-31T23:34:27.800Z,10.18
2022-12-31T23:36:55.423Z,12.15
2022-12-31T23:39:22.693Z,8.32
2022-12-31T23:41:49.854Z,8.02
2022-12-31T23:44:17.056Z,6.82
2022-12-31T23:46:44.800Z,7.55
2022-12-31T23:49:12.654Z,6.97
2022-12-31T23:51:40.343Z,9.20
2022-12-31T23:54:07.863Z,12.30
2022-12-31T23:56:35.010Z,10.82
2022-12-31T23:59:02.481Z,10.70
